Time;durP1;ratioP1;P1;durP2;ratioP2;P2;SDS_P1;SDS_P2;PMS_P1;PMS_P2;Temp;Humidity;BMP_temperature;BMP_pressure;BME280_temperature;BME280_humidity;BME280_pressure;Samples;Min_cycle;Max_cycle;Signal;HPM_P1;HPM_P2
2022/03/15 00:00:36;;;;;;;40.00;10.03;;;;;;;38.15;46.42;100930.53;5112895;28;21170;-71
2022/03/15 00:03:03;;;;;;;24.20;8.83;;;;;;;38.13;46.48;100927.34;5114376;28;20448;-69
2022/03/15 00:05:30;;;;;;;24.40;10.73;;;;;;;38.22;46.05;100919.28;5112993;28;20412;-71
2022/03/15 00:07:56;;;;;;;19.23;9.23;;;;;;;38.21;45.87;100917.69;5113133;28;20489;-69
2022/03/15 00:10:23;;;;;;;20.90;10.27;;;;;;;38.20;46.12;100907.94;5095943;28;20976;-70
2022/03/15 00:12:51;;;;;;;22.30;9.03;;;;;;;38.20;46.58;100911.47;5096139;28;20424;-70
2022/03/15 00:15:17;;;;;;;30.83;9.90;;;;;;;38.18;46.50;100909.06;5114134;28;20451;-70
2022/03/15 00:17:47;;;;;;;23.70;11.30;;;;;;;38.37;45.98;100902.69;5112793;28;20434;-71
2022/03/15 00:20:18;;;;;;;25.40;10.60;;;;;;;38.24;46.21;100908.91;5114030;27;20458;-69
2022/03/15 00:22:46;;;;;;;29.77;7.43;;;;;;;38.27;46.09;100897.50;5112545;28;20979;-69
2022/03/15 00:25:16;;;;;;;23.27;8.10;;;;;;;38.27;46.13;100894.81;5112728;28;20453;-70
2022/03/15 00:27:47;;;;;;;20.37;10.27;;;;;;;38.33;46.38;100897.09;5112406;28;20435;-71
2022/03/15 00:30:15;;;;;;;20.40;11.17;;;;;;;38.38;46.20;100890.75;5112872;28;20913;-69
2022/03/15 00:32:44;;;;;;;23.93;11.63;;;;;;;38.36;46.18;100882.91;5112554;28;20411;-70
2022/03/15 00:35:23;;;;;;;20.37;7.90;;;;;;;38.40;45.90;100883.91;5112197;28;20856;-68
2022/03/15 00:37:53;;;;;;;25.60;9.47;;;;;;;38.37;46.63;100883.72;5113826;28;20396;-70
2022/03/15 00:40:20;;;;;;;24.87;9.70;;;;;;;38.09;46.58;100885.72;5112263;28;20452;-68
2022/03/15 00:42:51;;;;;;;21.57;8.50;;;;;;;38.14;46.61;100891.00;5112117;28;20945;-70
2022/03/15 00:45:18;;;;;;;21.43;8.80;;;;;;;37.96;46.99;100881.94;5112003;28;20427;-71
2022/03/15 00:47:45;;;;;;;15.93;8.20;;;;;;;37.98;46.96;100868.09;5112261;28;20502;-69
2022/03/15 00:50:12;;;;;;;16.53;8.33;;;;;;;37.91;47.53;100873.94;5112064;28;20519;-69
2022/03/15 00:52:38;;;;;;;20.27;8.03;;;;;;;37.90;46.89;100866.91;5112165;28;20428;-70
2022/03/15 00:55:05;;;;;;;16.13;8.80;;;;;;;37.80;47.07;100878.75;5112143;28;20492;-69
2022/03/15 00:57:34;;;;;;;12.97;9.37;;;;;;;37.91;46.91;100855.78;5111761;28;20507;-69
2022/03/15 01:00:01;;;;;;;22.70;8.90;;;;;;;37.91;46.90;100836.81;5111804;28;20534;-71
2022/03/15 01:02:27;;;;;;;21.50;9.67;;;;;;;37.92;47.16;100849.25;5113252;28;20475;-70
2022/03/15 01:04:54;;;;;;;21.23;10.47;;;;;;;37.71;47.58;100847.28;5111887;28;20412;-70
2022/03/15 01:07:21;;;;;;;18.47;9.20;;;;;;;37.88;47.44;100850.19;5113231;28;20916;-69
2022/03/15 01:09:47;;;;;;;26.33;8.93;;;;;;;37.86;47.24;100844.25;5111782;28;20416;-69
2022/03/15 01:12:13;;;;;;;18.43;11.10;;;;;;;37.94;47.14;100838.13;5111855;28;20423;-69
2022/03/15 01:14:39;;;;;;;22.97;10.33;;;;;;;37.96;46.78;100837.81;5111664;28;20467;-71
2022/03/15 01:17:06;;;;;;;30.77;9.53;;;;;;;38.15;46.24;100836.53;5113091;28;20428;-71
2022/03/15 01:19:32;;;;;;;16.13;10.07;;;;;;;38.23;46.26;100829.56;5111615;28;20439;-69
2022/03/15 01:21:59;;;;;;;21.70;7.90;;;;;;;38.11;47.22;100837.44;5112874;28;20906;-68
2022/03/15 01:24:25;;;;;;;24.43;9.20;;;;;;;37.96;47.16;100827.78;5111466;28;20424;-69
2022/03/15 01:26:53;;;;;;;21.13;9.07;;;;;;;38.11;47.04;100826.59;5112747;28;20445;-70
2022/03/15 01:29:20;;;;;;;16.50;10.87;;;;;;;38.16;46.77;100819.16;5111502;28;20416;-68
2022/03/15 01:31:49;;;;;;;16.90;8.43;;;;;;;38.04;46.88;100829.75;5112454;28;20392;-70
2022/03/15 01:34:16;;;;;;;18.23;8.43;;;;;;;38.02;46.55;100828.47;5111337;28;20428;-70
2022/03/15 01:36:42;;;;;;;24.83;7.87;;;;;;;38.04;46.84;100835.16;5111426;28;20476;-69
2022/03/15 01:39:09;;;;;;;25.17;10.20;;;;;;;38.07;46.31;100822.94;5111089;28;20416;-69
2022/03/15 01:41:39;;;;;;;24.23;11.60;;;;;;;37.95;46.74;100823.47;5111259;28;20451;-69
2022/03/15 01:44:14;;;;;;;18.97;8.60;;;;;;;38.02;47.02;100820.34;5112523;28;20447;-69
2022/03/15 01:46:41;;;;;;;23.33;8.67;;;;;;;38.32;46.07;100818.81;5111194;28;20795;-71
2022/03/15 01:49:08;;;;;;;19.57;8.80;;;;;;;38.05;46.58;100817.81;5111233;28;20456;-69
2022/03/15 01:51:34;;;;;;;20.77;9.57;;;;;;;37.88;46.42;100809.56;5112329;27;20457;-69
2022/03/15 01:54:01;;;;;;;21.50;8.00;;;;;;;38.11;46.40;100818.47;5111186;28;20412;-70
2022/03/15 01:56:27;;;;;;;22.33;10.00;;;;;;;37.86;47.08;100820.69;5111091;28;20408;-68
2022/03/15 01:58:53;;;;;;;23.17;9.87;;;;;;;37.95;47.18;100817.25;5112322;28;20539;-68
2022/03/15 02:01:19;;;;;;;18.30;8.50;;;;;;;38.11;46.44;100813.84;5110898;28;20475;-69
2022/03/15 02:03:46;;;;;;;14.07;9.00;;;;;;;38.13;46.56;100808.94;5112256;28;20408;-69
2022/03/15 02:06:12;;;;;;;17.47;9.70;;;;;;;38.18;46.67;100813.41;5110907;28;20451;-69
2022/03/15 02:08:38;;;;;;;30.37;10.33;;;;;;;38.01;46.79;100808.72;5110949;28;20472;-68
2022/03/15 02:11:04;;;;;;;12.20;8.57;;;;;;;38.09;46.30;100818.78;5111034;28;20480;-70
2022/03/15 02:13:31;;;;;;;25.23;9.67;;;;;;;38.27;46.39;100805.41;5112346;28;20385;-68
2022/03/15 02:15:57;;;;;;;20.03;8.03;;;;;;;37.99;46.39;100810.91;5112053;28;20462;-70
2022/03/15 02:18:26;;;;;;;21.37;9.10;;;;;;;37.81;46.34;100804.59;5112299;28;20393;-70
2022/03/15 02:20:54;;;;;;;13.90;8.40;;;;;;;38.03;46.15;100797.56;5110672;28;20471;-69
2022/03/15 02:23:20;;;;;;;27.57;9.93;;;;;;;37.86;46.34;100795.53;5112225;28;20847;-68
2022/03/15 02:25:47;;;;;;;17.03;7.93;;;;;;;38.18;45.78;100800.72;5110843;28;20949;-69
2022/03/15 02:28:13;;;;;;;25.33;9.20;;;;;;;38.06;46.23;100789.63;5110521;28;20527;-70
2022/03/15 02:30:39;;;;;;;23.73;11.77;;;;;;;38.06;45.84;100780.69;5112147;28;20399;-69
2022/03/15 02:33:06;;;;;;;24.50;9.30;;;;;;;38.04;46.35;100785.63;5093952;28;20925;-69
2022/03/15 02:35:32;;;;;;;16.63;9.33;;;;;;;38.12;46.04;100784.88;5110557;28;20435;-70
2022/03/15 02:37:58;;;;;;;31.17;9.37;;;;;;;38.09;45.94;100786.28;5110680;28;20787;-69
2022/03/15 02:40:25;;;;;;;23.63;8.60;;;;;;;38.12;45.62;100788.41;5110600;28;21050;-69
2022/03/15 02:42:51;;;;;;;24.40;10.33;;;;;;;38.15;46.21;100785.06;5113760;28;20470;-69
2022/03/15 02:45:17;;;;;;;27.37;11.30;;;;;;;37.86;46.56;100784.69;5097653;28;20415;-69
2022/03/15 02:47:45;;;;;;;25.80;11.30;;;;;;;37.75;45.70;100783.28;5114579;28;20420;-69
2022/03/15 02:50:11;;;;;;;18.00;9.27;;;;;;;37.78;45.82;100782.69;5114455;28;20450;-68
2022/03/15 02:52:37;;;;;;;20.07;8.90;;;;;;;37.78;46.12;100791.63;5114431;28;20411;-68
2022/03/15 02:55:04;;;;;;;28.43;8.80;;;;;;;37.76;46.01;100793.84;5114435;28;20412;-68
2022/03/15 02:57:31;;;;;;;23.17;10.20;;;;;;;37.63;46.58;100781.16;5114192;28;20852;-68
2022/03/15 02:59:57;;;;;;;24.97;9.90;;;;;;;37.59;47.10;100775.53;5114205;28;20532;-69
2022/03/15 03:02:23;;;;;;;18.87;9.50;;;;;;;37.32;47.86;100783.69;5114416;28;20479;-69
2022/03/15 03:04:51;;;;;;;27.40;10.77;;;;;;;37.38;48.08;100779.78;5114209;28;20914;-69
2022/03/15 03:07:19;;;;;;;21.57;9.97;;;;;;;37.49;47.75;100772.25;5114265;28;20424;-71
2022/03/15 03:09:47;;;;;;;20.67;9.83;;;;;;;37.86;46.63;100780.06;5115493;28;20894;-69
2022/03/15 03:12:15;;;;;;;15.43;9.97;;;;;;;38.00;46.03;100773.78;5115540;28;20431;-68
2022/03/15 03:14:41;;;;;;;27.37;9.07;;;;;;;37.83;46.57;100779.91;5114150;28;20477;-69
2022/03/15 03:17:08;;;;;;;22.97;10.23;;;;;;;37.99;45.90;100772.19;5115340;28;20400;-69
2022/03/15 03:19:38;;;;;;;23.90;9.63;;;;;;;38.01;45.69;100770.00;5113945;28;20420;-69
2022/03/15 03:22:06;;;;;;;22.00;9.33;;;;;;;37.54;46.91;100769.44;5113864;28;20419;-69
2022/03/15 03:24:32;;;;;;;22.47;10.23;;;;;;;37.74;46.65;100768.16;5097043;28;20416;-69
2022/03/15 03:27:00;;;;;;;20.27;9.97;;;;;;;37.68;46.77;100781.03;5113738;28;20440;-69
2022/03/15 03:29:28;;;;;;;29.03;10.77;;;;;;;37.45;46.78;100768.59;5113843;28;20468;-69
2022/03/15 03:31:55;;;;;;;20.77;10.67;;;;;;;37.58;46.70;100759.63;5115214;28;20396;-69
2022/03/15 03:34:21;;;;;;;27.33;11.17;;;;;;;37.85;45.97;100764.16;5113690;28;20848;-69
2022/03/15 03:36:48;;;;;;;32.13;9.30;;;;;;;38.00;45.49;100765.66;5113772;28;20420;-69
2022/03/15 03:39:14;;;;;;;30.80;9.67;;;;;;;37.86;45.34;100752.19;5096683;28;20427;-71
2022/03/15 03:41:40;;;;;;;15.20;9.53;;;;;;;37.61;46.08;100757.09;5114908;28;20488;-70
2022/03/15 03:44:07;;;;;;;18.57;9.33;;;;;;;37.31;47.74;100763.94;5114915;27;20393;-71
2022/03/15 03:46:33;;;;;;;29.53;11.73;;;;;;;37.46;46.96;100764.78;5113374;28;20501;-68
2022/03/15 03:48:59;;;;;;;19.50;10.73;;;;;;;37.53;47.04;100774.06;5113293;28;20443;-69
2022/03/15 03:51:25;;;;;;;25.40;8.40;;;;;;;37.47;46.83;100763.66;5113365;28;20423;-69
2022/03/15 03:53:51;;;;;;;24.03;11.17;;;;;;;37.41;47.16;100760.25;5112888;28;20527;-69
2022/03/15 03:56:18;;;;;;;27.90;11.07;;;;;;;37.29;47.40;100763.47;5113403;28;20423;-71
2022/03/15 03:58:44;;;;;;;17.23;8.63;;;;;;;37.78;46.71;100761.03;5113201;28;20412;-71
2022/03/15 04:01:10;;;;;;;22.27;10.60;;;;;;;37.51;47.26;100767.38;5112793;28;20571;-70
2022/03/15 04:03:38;;;;;;;19.83;10.70;;;;;;;37.68;46.56;100777.50;5113080;28;20443;-70
2022/03/15 04:06:05;;;;;;;18.00;9.60;;;;;;;37.55;46.67;100768.34;5113165;28;20930;-70
2022/03/15 04:08:31;;;;;;;27.33;10.97;;;;;;;37.28;47.25;100783.50;5112928;28;20470;-69
2022/03/15 04:10:58;;;;;;;21.13;8.00;;;;;;;37.58;46.67;100795.59;5112939;28;20415;-70
2022/03/15 04:13:26;;;;;;;38.50;13.57;;;;;;;37.54;48.63;100810.03;5112993;28;20557;-69
2022/03/15 04:15:53;;;;;;;33.17;11.57;;;;;;;37.38;48.39;100799.56;5112864;28;20431;-69
2022/03/15 04:18:19;;;;;;;34.00;12.97;;;;;;;37.59;48.20;100809.94;5112918;28;20558;-70
2022/03/15 04:20:45;;;;;;;29.57;12.07;;;;;;;37.14;48.69;100807.09;5112773;28;20443;-68
2022/03/15 04:23:12;;;;;;;33.47;18.37;;;;;;;36.95;47.93;100795.53;5112773;28;20420;-71
2022/03/15 04:25:39;;;;;;;48.93;19.00;;;;;;;36.86;47.71;100790.03;5112698;28;20411;-70
2022/03/15 04:28:06;;;;;;;82.47;23.63;;;;;;;37.03;46.90;100794.88;5112535;28;20531;-68
2022/03/15 04:30:33;;;;;;;50.13;17.23;;;;;;;37.20;45.71;100797.75;5112665;28;20905;-68
2022/03/15 04:33:01;;;;;;;44.50;19.63;;;;;;;37.37;45.69;100816.88;5112606;28;20407;-69
2022/03/15 04:35:29;;;;;;;38.93;17.57;;;;;;;37.53;45.91;100811.94;5112461;28;20446;-69
2022/03/15 04:37:57;;;;;;;33.63;13.23;;;;;;;37.63;46.08;100822.56;5113471;28;20432;-70
2022/03/15 04:40:23;;;;;;;43.80;14.47;;;;;;;37.68;47.04;100826.22;5112252;28;20456;-69
2022/03/15 04:42:50;;;;;;;29.17;12.43;;;;;;;37.81;47.76;100830.84;5112332;28;20420;-69
2022/03/15 04:45:16;;;;;;;39.30;14.37;;;;;;;37.79;47.68;100838.44;5112138;28;20542;-71
2022/03/15 04:47:42;;;;;;;38.30;15.50;;;;;;;37.54;48.55;100837.09;5112239;28;20534;-70
2022/03/15 04:50:10;;;;;;;37.90;14.87;;;;;;;37.45;48.52;100822.69;5112072;28;20420;-71
2022/03/15 04:52:37;;;;;;;29.23;12.10;;;;;;;37.55;48.56;100825.97;5112110;28;20442;-69
2022/03/15 04:55:05;;;;;;;38.77;14.40;;;;;;;37.77;47.84;100827.13;5112102;28;20865;-69
2022/03/15 04:57:32;;;;;;;34.40;13.00;;;;;;;37.62;48.03;100836.38;5113229;28;20399;-69
2022/03/15 04:59:58;;;;;;;19.50;9.10;;;;;;;37.73;47.50;100839.66;5111852;28;20491;-69
2022/03/15 05:02:24;;;;;;;25.63;13.43;;;;;;;37.19;49.12;100834.00;5113406;28;20388;-69
2022/03/15 05:04:52;;;;;;;28.47;12.07;;;;;;;36.86;50.06;100825.97;5111012;28;20413;-69
2022/03/15 05:07:18;;;;;;;36.77;11.23;;;;;;;36.78;50.50;100815.84;5113160;28;20423;-71
2022/03/15 05:12:29;;;;;;;26.60;12.00;;;;;;;36.94;50.30;100812.88;5113091;28;20457;-68
2022/03/15 05:14:56;;;;;;;19.60;10.20;;;;;;;37.05;50.02;100796.16;5111802;28;20461;-69
2022/03/15 05:17:23;;;;;;;29.67;11.70;;;;;;;37.27;49.37;100800.06;5111861;28;20423;-68
2022/03/15 05:19:49;;;;;;;16.00;10.37;;;;;;;37.29;49.43;100801.34;5113085;28;20395;-70
2022/03/15 05:22:16;;;;;;;29.13;11.50;;;;;;;37.31;48.83;100807.22;5113071;28;20890;-68
2022/03/15 05:24:43;;;;;;;21.00;8.80;;;;;;;37.18;49.81;100801.84;5094929;28;20917;-69
2022/03/15 05:27:09;;;;;;;29.47;10.60;;;;;;;37.47;48.86;100810.47;5111560;28;20452;-69
2022/03/15 05:29:37;;;;;;;38.50;16.10;;;;;;;37.53;47.19;100811.94;5094902;28;20970;-69
2022/03/15 05:32:03;;;;;;;37.03;14.23;;;;;;;37.47;46.75;100831.31;5111512;28;20476;-69
2022/03/15 05:34:30;;;;;;;36.17;13.90;;;;;;;37.28;47.64;100843.03;5110410;28;20434;-68
2022/03/15 05:36:56;;;;;;;50.17;15.70;;;;;;;36.79;48.34;100843.69;5104671;28;20416;-68
2022/03/15 05:39:22;;;;;;;47.00;15.20;;;;;;;36.98;48.42;100840.94;5100333;28;20405;-68
2022/03/15 05:41:48;;;;;;;38.93;15.40;;;;;;;36.99;48.51;100832.50;5100265;28;20480;-68
2022/03/15 05:44:15;;;;;;;37.03;14.57;;;;;;;36.96;49.01;100827.72;5106176;28;20439;-69
2022/03/15 05:46:41;;;;;;;36.37;11.07;;;;;;;37.00;48.87;100833.31;5111146;28;20840;-69
2022/03/15 05:49:07;;;;;;;38.77;15.20;;;;;;;37.25;48.71;100832.00;5111180;28;21339;-70
2022/03/15 05:51:34;;;;;;;26.37;13.40;;;;;;;37.40;47.01;100831.72;5111593;28;20469;-70
2022/03/15 05:54:00;;;;;;;23.60;13.17;;;;;;;37.40;47.26;100830.94;5111349;28;20804;-69
2022/03/15 05:56:26;;;;;;;27.63;12.23;;;;;;;37.10;47.52;100839.31;5111116;28;20514;-69
2022/03/15 05:58:52;;;;;;;31.63;11.07;;;;;;;37.20;47.27;100843.75;5111187;28;20442;-69
2022/03/15 06:01:19;;;;;;;49.43;15.67;;;;;;;37.33;46.57;100850.25;5110438;28;20528;-72
2022/03/15 06:25:30;;;;;;;39.85;16.35;;;;;;;37.12;43.97;100885.78;6038416;22;2089068;-69
2022/03/15 06:27:56;;;;;;;43.90;19.03;;;;;;;37.05;44.76;100884.59;6161244;23;20192;-69
2022/03/15 06:30:24;;;;;;;37.40;17.37;;;;;;;37.08;45.04;100890.22;6160961;23;20384;-72
2022/03/15 06:32:50;;;;;;;29.23;14.03;;;;;;;37.28;44.77;100899.03;6162873;23;20360;-72
2022/03/15 06:35:16;;;;;;;33.23;13.27;;;;;;;37.51;45.38;100908.88;6161171;23;20475;-70
2022/03/15 06:37:45;;;;;;;32.10;13.70;;;;;;;37.33;46.02;100907.06;6161141;23;20855;-71
2022/03/15 06:40:19;;;;;;;27.33;12.93;;;;;;;37.39;46.42;100911.28;6162632;23;20813;-69
2022/03/15 06:42:45;;;;;;;29.30;11.60;;;;;;;37.45;46.89;100918.22;6160471;23;20385;-69
2022/03/15 06:45:11;;;;;;;21.00;12.57;;;;;;;37.53;47.12;100920.19;6159534;23;20380;-69
2022/03/15 06:47:39;;;;;;;27.77;11.40;;;;;;;37.30;48.09;100923.88;6157557;23;20381;-69
2022/03/15 06:50:12;;;;;;;29.77;10.30;;;;;;;37.48;47.86;100928.41;6157881;23;20924;-71
2022/03/15 06:52:43;;;;;;;20.33;11.90;;;;;;;37.67;47.42;100936.41;6157446;23;21136;-71
2022/03/15 06:55:10;;;;;;;24.63;12.10;;;;;;;37.61;48.11;100938.44;6157483;23;20463;-69
2022/03/15 06:57:38;;;;;;;21.43;10.80;;;;;;;37.49;48.38;100938.13;6132940;23;20588;-70
2022/03/15 07:00:07;;;;;;;37.53;12.63;;;;;;;37.52;48.62;100942.16;6157375;23;20941;-70
2022/03/15 07:02:33;;;;;;;36.27;14.20;;;;;;;37.77;48.40;100944.34;6159267;23;20841;-69
2022/03/15 07:04:59;;;;;;;28.13;10.43;;;;;;;37.72;47.78;100957.19;6160981;23;20414;-69
2022/03/15 07:07:26;;;;;;;23.43;13.47;;;;;;;37.77;48.08;100946.25;6159309;23;20384;-71
2022/03/15 07:09:54;;;;;;;30.27;12.17;;;;;;;37.75;47.85;100960.09;6158701;23;20372;-69
2022/03/15 07:12:21;;;;;;;24.13;10.20;;;;;;;37.73;47.93;100964.19;6159408;23;20386;-69
2022/03/15 07:14:49;;;;;;;26.97;10.80;;;;;;;37.83;48.07;100964.81;6159508;23;20376;-70
2022/03/15 07:17:16;;;;;;;29.47;10.27;;;;;;;38.04;47.28;100978.72;6159418;23;20388;-71
2022/03/15 07:19:42;;;;;;;20.70;10.93;;;;;;;37.80;47.41;100961.88;6156982;23;20866;-69
2022/03/15 07:22:09;;;;;;;26.20;12.83;;;;;;;37.91;47.35;100971.41;6154255;23;20361;-71
2022/03/15 07:24:35;;;;;;;26.67;12.03;;;;;;;37.60;47.43;100963.88;6157369;23;20468;-69
2022/03/15 07:27:03;;;;;;;27.13;10.43;;;;;;;37.38;47.35;100964.59;6157500;23;20399;-69
2022/03/15 07:29:29;;;;;;;30.03;14.40;;;;;;;36.90;48.51;100968.69;6158569;23;20416;-71
2022/03/15 07:31:56;;;;;;;28.57;11.23;;;;;;;37.20;48.22;100965.47;6185526;23;20355;-71
2022/03/15 07:34:22;;;;;;;29.03;13.60;;;;;;;37.41;48.10;100971.31;6159013;23;20864;-71
2022/03/15 07:36:49;;;;;;;33.10;13.80;;;;;;;37.79;47.53;100973.81;6158713;23;20890;-71
2022/03/15 07:39:15;;;;;;;27.73;12.63;;;;;;;37.60;47.36;100979.34;6158241;23;20429;-71
2022/03/15 07:41:42;;;;;;;25.60;10.80;;;;;;;37.46;47.52;100984.75;6185166;23;20368;-69
2022/03/15 07:44:12;;;;;;;26.57;11.17;;;;;;;37.59;47.58;100978.53;6158385;23;20373;-70
2022/03/15 07:46:40;;;;;;;26.57;11.93;;;;;;;37.49;47.36;100986.84;6159031;23;20380;-69
2022/03/15 07:49:07;;;;;;;41.60;15.70;;;;;;;37.53;46.95;100982.44;6158847;23;20440;-71
2022/03/15 07:51:34;;;;;;;23.27;10.23;;;;;;;36.97;48.03;100983.44;6158465;23;20380;-71
2022/03/15 07:54:00;;;;;;;38.50;13.57;;;;;;;37.20;47.47;100988.97;6158467;23;20388;-71
2022/03/15 07:56:26;;;;;;;42.97;13.40;;;;;;;37.34;46.87;100992.56;6158367;23;20928;-71
2022/03/15 07:58:52;;;;;;;26.83;11.07;;;;;;;37.33;46.88;100997.13;6183710;23;20388;-71
2022/03/15 08:01:19;;;;;;;35.73;11.57;;;;;;;37.32;47.98;101009.06;6185074;23;20407;-71
2022/03/15 08:03:45;;;;;;;25.83;10.77;;;;;;;37.55;47.32;100996.47;6158711;23;20380;-71
2022/03/15 08:06:12;;;;;;;27.90;12.27;;;;;;;37.78;47.39;101007.41;6158227;23;20380;-71
2022/03/15 08:08:38;;;;;;;43.97;12.13;;;;;;;37.82;47.11;101011.16;6184987;23;20412;-70
2022/03/15 08:11:06;;;;;;;36.23;11.70;;;;;;;37.68;47.06;101015.72;6158195;23;20412;-71
2022/03/15 08:13:36;;;;;;;30.43;12.13;;;;;;;37.79;47.06;101023.34;6185039;23;20359;-71
2022/03/15 08:16:04;;;;;;;22.33;13.20;;;;;;;37.91;47.11;101015.53;6158588;23;20419;-71
2022/03/15 08:18:31;;;;;;;31.17;16.50;;;;;;;38.00;46.97;101025.66;6157070;23;20877;-71
2022/03/15 08:20:58;;;;;;;32.73;14.60;;;;;;;37.84;46.51;101020.56;6183905;23;20363;-71
2022/03/15 08:23:24;;;;;;;26.20;13.40;;;;;;;37.66;46.95;101024.16;6158258;23;20381;-71
2022/03/15 08:25:51;;;;;;;22.90;11.13;;;;;;;37.76;47.08;101023.97;6158245;23;20506;-70
2022/03/15 08:28:17;;;;;;;29.00;12.50;;;;;;;37.86;47.77;101026.47;6158343;23;20962;-69
2022/03/15 08:30:43;;;;;;;36.77;11.80;;;;;;;37.46;48.08;101029.94;6157978;23;20595;-72
2022/03/15 08:33:09;;;;;;;15.60;10.67;;;;;;;37.84;47.40;101031.41;6157927;23;20402;-69
2022/03/15 08:35:36;;;;;;;28.60;11.87;;;;;;;38.04;46.42;101038.28;6184414;23;20372;-69
2022/03/15 08:38:02;;;;;;;26.63;11.60;;;;;;;38.08;45.79;101039.31;6184740;23;20824;-69
2022/03/15 08:40:28;;;;;;;29.70;12.43;;;;;;;37.91;46.27;101047.22;6157991;23;20939;-71
2022/03/15 08:42:55;;;;;;;30.30;10.30;;;;;;;38.20;46.04;101054.25;6158107;23;20386;-71
2022/03/15 08:45:21;;;;;;;28.90;11.93;;;;;;;37.87;47.37;101051.63;6158288;23;20426;-71
2022/03/15 08:47:47;;;;;;;33.57;12.03;;;;;;;37.71;47.07;101050.31;6157980;23;20421;-71
2022/03/15 08:50:13;;;;;;;29.37;11.97;;;;;;;37.95;46.48;101050.97;6185005;23;20361;-71
2022/03/15 08:52:39;;;;;;;25.60;11.03;;;;;;;38.23;45.90;101062.53;6158175;23;20423;-72
2022/03/15 08:55:06;;;;;;;26.40;12.30;;;;;;;38.03;46.23;101061.06;6184577;23;20356;-71
2022/03/15 08:57:32;;;;;;;19.63;10.90;;;;;;;37.99;46.62;101067.38;6158141;23;20864;-71
2022/03/15 08:59:58;;;;;;;29.97;13.40;;;;;;;38.14;46.06;101070.59;6157902;23;20376;-69
2022/03/15 09:02:25;;;;;;;22.57;10.07;;;;;;;38.21;46.09;101070.19;6158025;23;20770;-70
2022/03/15 09:04:51;;;;;;;30.57;11.67;;;;;;;37.92;46.13;101075.91;6184390;23;20675;-70
2022/03/15 09:07:17;;;;;;;29.67;10.50;;;;;;;37.88;45.99;101070.31;6184437;23;20357;-70
2022/03/15 09:09:43;;;;;;;31.83;11.97;;;;;;;37.82;45.91;101076.94;6184265;23;20412;-70
2022/03/15 09:12:09;;;;;;;21.53;9.60;;;;;;;37.59;45.60;101073.25;6157832;23;20372;-70
2022/03/15 09:14:36;;;;;;;36.67;11.20;;;;;;;37.87;45.43;101074.09;6157975;23;20372;-70
2022/03/15 09:17:02;;;;;;;21.80;11.07;;;;;;;37.81;45.82;101079.91;6184381;23;20361;-69
2022/03/15 09:19:28;;;;;;;38.43;10.97;;;;;;;37.99;45.79;101092.56;6158149;23;20368;-70
2022/03/15 09:21:55;;;;;;;22.03;11.30;;;;;;;37.98;45.67;101087.44;6157964;23;20380;-71
2022/03/15 09:24:21;;;;;;;27.63;11.60;;;;;;;38.27;45.68;101082.56;6157048;23;20846;-71
2022/03/15 09:26:47;;;;;;;24.57;9.90;;;;;;;38.45;45.18;101078.09;6156196;23;20718;-72
2022/03/15 09:29:13;;;;;;;29.00;11.43;;;;;;;38.51;44.85;101076.88;6157599;23;20498;-72
2022/03/15 09:31:40;;;;;;;25.40;9.00;;;;;;;38.54;44.38;101070.84;6157050;23;20423;-70
2022/03/15 09:34:06;;;;;;;23.33;10.33;;;;;;;38.47;44.75;101075.88;6184219;23;20403;-70
2022/03/15 09:36:34;;;;;;;26.00;11.33;;;;;;;38.24;44.70;101076.91;6157714;23;20376;-71
2022/03/15 09:39:01;;;;;;;27.63;11.40;;;;;;;38.53;44.43;101063.03;6157694;23;20386;-71
2022/03/15 09:41:28;;;;;;;32.93;11.83;;;;;;;38.48;44.21;101063.94;6157823;23;20439;-68
2022/03/15 09:43:55;;;;;;;21.07;10.37;;;;;;;38.33;44.87;101067.78;6183969;23;20429;-69
2022/03/15 09:46:22;;;;;;;23.70;11.37;;;;;;;38.19;45.33;101064.28;6157759;23;20357;-72
2022/03/15 09:48:54;;;;;;;28.87;10.23;;;;;;;37.92;46.23;101063.19;6184067;23;20412;-66
2022/03/15 09:51:20;;;;;;;27.93;9.67;;;;;;;38.16;45.75;101062.16;6157502;23;20400;-67
2022/03/15 09:53:48;;;;;;;17.63;9.53;;;;;;;38.44;44.96;101060.25;6157769;23;20385;-66
2022/03/15 09:56:15;;;;;;;25.87;10.80;;;;;;;38.27;45.41;101060.06;6157656;23;20388;-67
2022/03/15 09:58:42;;;;;;;24.13;10.70;;;;;;;38.13;45.44;101050.03;6157542;23;20407;-67
2022/03/15 10:01:16;;;;;;;26.33;10.40;;;;;;;38.29;45.38;101047.81;6157510;23;20917;-69
2022/03/15 10:03:43;;;;;;;25.27;10.80;;;;;;;38.49;44.96;101053.88;6134043;23;20383;-69
2022/03/15 10:06:09;;;;;;;15.57;9.97;;;;;;;38.33;44.89;101045.31;6157569;23;20766;-68
2022/03/15 10:08:36;;;;;;;27.50;10.43;;;;;;;38.55;45.79;101039.94;6157294;23;20419;-71
2022/03/15 10:11:03;;;;;;;23.90;9.57;;;;;;;38.54;44.37;101038.31;6157463;23;20919;-70
2022/03/15 10:13:29;;;;;;;34.43;10.07;;;;;;;38.54;44.50;101038.31;6157579;23;20468;-68
2022/03/15 10:15:59;;;;;;;26.43;10.77;;;;;;;38.78;44.56;101042.69;6132761;23;20408;-68
2022/03/15 10:18:27;;;;;;;22.60;11.37;;;;;;;38.81;44.23;101039.38;6131761;23;20379;-67
2022/03/15 10:20:54;;;;;;;28.87;10.70;;;;;;;38.87;43.53;101036.22;6128724;23;20454;-65
2022/03/15 10:23:29;;;;;;;21.43;8.80;;;;;;;38.65;43.37;101028.03;6121875;23;20425;-68
2022/03/15 10:25:56;;;;;;;22.60;9.50;;;;;;;38.65;43.83;101034.25;6121410;23;20424;-66
2022/03/15 10:28:23;;;;;;;29.27;11.37;;;;;;;38.45;45.17;101034.75;6146069;23;20926;-66
2022/03/15 10:30:50;;;;;;;16.50;10.17;;;;;;;38.64;44.22;101035.38;6121533;23;20538;-66
2022/03/15 10:33:17;;;;;;;32.07;12.17;;;;;;;38.85;43.85;101033.00;6121607;23;20386;-68
2022/03/15 10:35:47;;;;;;;25.50;10.33;;;;;;;38.96;42.87;101025.44;6121131;23;20449;-66
2022/03/15 10:38:13;;;;;;;34.40;10.33;;;;;;;38.95;43.23;101027.34;6123146;23;20702;-68
2022/03/15 10:40:46;;;;;;;23.37;9.93;;;;;;;39.01;42.82;101013.66;6121284;23;20486;-68
2022/03/15 10:43:30;;;;;;;14.63;8.23;;;;;;;39.03;43.04;100998.66;6121482;23;20472;-69
2022/03/15 10:45:58;;;;;;;26.43;9.37;;;;;;;38.89;43.34;101000.66;6145657;23;20413;-66
2022/03/15 10:48:32;;;;;;;16.07;7.80;;;;;;;39.03;43.11;101006.00;6145795;23;20437;-65
2022/03/15 10:51:00;;;;;;;17.47;9.23;;;;;;;39.06;42.69;100995.34;6145736;23;20389;-68
2022/03/15 10:53:36;;;;;;;30.03;8.53;;;;;;;39.11;43.21;100994.41;6123281;23;20359;-66
2022/03/15 10:56:24;;;;;;;23.90;11.07;;;;;;;39.16;43.03;100986.16;6147042;23;20437;-66
2022/03/15 10:58:56;;;;;;;22.93;9.03;;;;;;;39.01;43.46;100981.91;6099205;23;20384;-68
2022/03/15 11:01:24;;;;;;;18.37;8.20;;;;;;;38.56;43.90;100978.41;6148310;23;20529;-66
2022/03/15 11:03:59;;;;;;;17.97;9.57;;;;;;;39.02;43.56;100977.28;6098836;23;20401;-66
2022/03/15 11:06:40;;;;;;;17.00;8.90;;;;;;;38.73;43.45;100970.38;6124454;23;20536;-68
2022/03/15 11:09:25;;;;;;;22.37;8.63;;;;;;;38.73;43.79;100975.81;6122907;23;20444;-66
2022/03/15 11:12:07;;;;;;;19.50;9.67;;;;;;;38.89;43.75;100970.81;6147553;23;20445;-68
2022/03/15 11:14:45;;;;;;;32.37;12.00;;;;;;;38.65;44.10;100965.69;6122974;23;20424;-66
2022/03/15 11:17:23;;;;;;;22.37;9.50;;;;;;;39.13;43.74;100967.75;6100818;23;20484;-67
2022/03/15 11:19:52;;;;;;;24.07;10.07;;;;;;;39.20;43.35;100973.56;6123908;23;20479;-68
2022/03/15 11:22:27;;;;;;;23.13;11.13;;;;;;;39.30;43.08;100964.38;6124084;23;20529;-67
2022/03/15 11:25:17;;;;;;;24.63;10.10;;;;;;;39.46;42.16;100976.38;6123965;23;20408;-69
2022/03/15 11:27:46;;;;;;;18.53;9.30;;;;;;;39.17;42.57;100972.28;6123903;23;20374;-68
2022/03/15 11:30:17;;;;;;;23.93;8.50;;;;;;;39.35;42.61;100967.75;6123979;23;20393;-68
2022/03/15 11:32:44;;;;;;;25.80;12.23;;;;;;;39.43;42.52;100963.44;6124000;23;20386;-69
2022/03/15 11:35:13;;;;;;;33.23;8.70;;;;;;;39.16;43.65;100957.09;6123955;23;20872;-68
2022/03/15 11:37:41;;;;;;;19.73;9.00;;;;;;;39.19;43.18;100953.78;6125541;23;20689;-70